createdAt,value
2023-07-23T00:02:51.060Z,13.52
2023-07-23T00:05:52.684Z,13.48
2023-07-23T00:08:54.242Z,13.53
2023-07-23T00:11:55.824Z,13.52
2023-07-23T00:14:57.537Z,13.49
2023-07-23T00:18:00.641Z,13.43
2023-07-23T00:21:02.260Z,13.45
2023-07-23T00:24:04.684Z,13.41
2023-07-23T00:27:06.392Z,13.32
2023-07-23T00:30:08.627Z,13.36
2023-07-23T00:33:11.764Z,13.39
2023-07-23T00:36:13.495Z,13.43
2023-07-23T00:39:15.093Z,13.51
2023-07-23T00:42:16.916Z,13.42
2023-07-23T00:45:18.871Z,13.48
2023-07-23T00:48:22.073Z,13.40
2023-07-23T00:51:27.151Z,13.46
2023-07-23T00:54:32.775Z,13.53
2023-07-23T00:57:34.462Z,13.46
2023-07-23T01:00:36.332Z,13.47
2023-07-23T01:03:39.280Z,13.47
2023-07-23T01:06:41.973Z,13.53
2023-07-23T01:09:44.277Z,13.56
2023-07-23T01:12:46.152Z,13.52
2023-07-23T01:15:48.104Z,13.47
2023-07-23T01:18:51.897Z,13.50
2023-07-23T01:21:56.863Z,13.50
2023-07-23T01:24:58.501Z,13.46
2023-07-23T01:28:00.082Z,13.46
2023-07-23T01:31:01.948Z,13.41
2023-07-23T01:34:06.004Z,13.44
2023-07-23T01:37:10.036Z,13.44
2023-07-23T01:40:15.185Z,13.45
2023-07-23T01:43:17.699Z,13.32
2023-07-23T01:46:19.343Z,13.36
2023-07-23T01:49:20.975Z,13.46
2023-07-23T01:52:24.138Z,13.41
2023-07-23T01:55:32.895Z,13.48
2023-07-23T01:58:34.715Z,13.41
2023-07-23T02:01:36.388Z,13.47
2023-07-23T02:04:38.014Z,13.44
2023-07-23T02:07:44.154Z,13.41
2023-07-23T02:10:45.915Z,13.45
2023-07-23T02:13:47.510Z,13.43
2023-07-23T02:16:49.165Z,13.40
2023-07-23T02:19:50.967Z,13.35
2023-07-23T02:22:54.049Z,13.40
2023-07-23T02:25:55.878Z,13.32
2023-07-23T02:28:57.557Z,13.40
2023-07-23T02:31:59.666Z,13.27
2023-07-23T02:35:01.338Z,13.19
2023-07-23T02:38:04.313Z,13.09
2023-07-23T02:41:09.873Z,12.99
2023-07-23T02:44:11.467Z,12.93
2023-07-23T02:47:13.129Z,12.99
2023-07-23T02:50:14.744Z,13.03
2023-07-23T02:53:17.886Z,12.92
2023-07-23T02:56:22.443Z,12.84
2023-07-23T02:59:25.401Z,12.86
2023-07-23T03:02:27.079Z,12.90
2023-07-23T03:05:28.727Z,12.82
2023-07-23T03:08:32.131Z,12.84
2023-07-23T03:11:37.937Z,12.72
2023-07-23T03:14:39.526Z,13.32
2023-07-23T03:17:41.212Z,13.22
2023-07-23T03:20:43.497Z,13.28
2023-07-23T03:23:50.219Z,13.32
2023-07-23T03:26:55.983Z,13.33
2023-07-23T03:29:57.888Z,13.55
2023-07-23T03:33:00.944Z,13.63
2023-07-23T03:36:02.580Z,13.85
2023-07-23T03:39:09.001Z,13.73
2023-07-23T03:42:14.843Z,13.76
2023-07-23T03:45:16.365Z,13.76
2023-07-23T03:48:18.061Z,13.83
2023-07-23T03:51:20.523Z,13.88
2023-07-23T03:54:23.614Z,13.95
2023-07-23T03:57:28.435Z,13.93
2023-07-23T04:00:29.998Z,13.94
2023-07-23T04:03:31.612Z,14.05
2023-07-23T04:06:33.202Z,14.08
2023-07-23T04:09:36.421Z,14.12
2023-07-23T04:12:41.958Z,14.24
2023-07-23T04:15:43.629Z,14.22
2023-07-23T04:18:45.992Z,14.21
2023-07-23T04:21:47.795Z,14.19
2023-07-23T04:24:54.201Z,14.20
2023-07-23T04:27:56.119Z,14.27
2023-07-23T04:30:58.388Z,14.30
2023-07-23T04:34:00.031Z,14.32
2023-07-23T04:37:01.630Z,14.32
2023-07-23T04:40:09.504Z,14.31
2023-07-23T04:43:11.075Z,14.37
2023-07-23T04:46:13.305Z,14.32
2023-07-23T04:49:14.881Z,14.40
2023-07-23T04:52:16.419Z,14.50
2023-07-23T04:55:22.916Z,14.55
2023-07-23T04:58:28.065Z,14.67
2023-07-23T05:01:29.844Z,14.72
2023-07-23T05:04:31.772Z,14.68
2023-07-23T05:07:34.575Z,14.70
2023-07-23T05:10:37.642Z,14.79
2023-07-23T05:13:43.163Z,14.88
2023-07-23T05:16:44.704Z,14.96
2023-07-23T05:19:46.409Z,15.03
2023-07-23T05:22:48.030Z,15.09
2023-07-23T05:25:51.000Z,15.04
2023-07-23T05:28:55.975Z,15.27
2023-07-23T05:31:57.642Z,15.49
2023-07-23T05:34:59.664Z,15.61
2023-07-23T05:38:01.260Z,15.73
2023-07-23T05:41:04.253Z,15.84
2023-07-23T05:44:10.229Z,15.99
2023-07-23T05:47:12.146Z,16.14
2023-07-23T05:50:13.744Z,16.21
2023-07-23T05:53:15.658Z,16.28
2023-07-23T05:56:18.557Z,16.42
2023-07-23T05:59:23.962Z,16.48
2023-07-23T06:02:25.514Z,16.45
2023-07-23T06:05:27.195Z,16.51
2023-07-23T06:08:29.156Z,16.40
2023-07-23T06:11:41.532Z,16.41
2023-07-23T06:14:43.202Z,16.46
2023-07-23T06:17:44.971Z,16.55
2023-07-23T06:20:46.654Z,16.71
2023-07-23T06:23:48.204Z,16.75
2023-07-23T06:26:57.560Z,16.77
2023-07-23T06:29:59.252Z,16.75
2023-07-23T06:33:00.972Z,16.85
2023-07-23T06:36:03.623Z,16.91
2023-07-23T06:39:05.192Z,16.94
2023-07-23T06:42:12.689Z,17.00
2023-07-23T06:45:14.272Z,17.12
2023-07-23T06:48:18.025Z,17.28
2023-07-23T06:51:19.662Z,17.32
2023-07-23T06:54:21.653Z,17.53
2023-07-23T06:57:29.880Z,17.71
2023-07-23T07:00:31.647Z,17.78
2023-07-23T07:03:33.447Z,17.73
2023-07-23T07:06:35.348Z,17.76
2023-07-23T07:09:36.952Z,17.78
2023-07-23T07:12:39.930Z,17.85
2023-07-23T07:15:44.489Z,17.86
2023-07-23T07:18:46.063Z,18.17
2023-07-23T07:21:47.923Z,18.31
2023-07-23T07:24:49.617Z,18.30
2023-07-23T07:27:56.073Z,18.46
2023-07-23T07:31:01.805Z,18.59
2023-07-23T07:34:03.493Z,18.58
2023-07-23T07:37:05.615Z,18.54
2023-07-23T07:40:08.488Z,18.72
2023-07-23T07:43:14.295Z,18.99
2023-07-23T07:46:20.333Z,19.02
2023-07-23T07:49:22.154Z,19.11
2023-07-23T07:52:24.024Z,19.25
2023-07-23T07:55:25.589Z,19.72
2023-07-23T07:58:32.758Z,19.90
2023-07-23T08:01:34.837Z,20.16
2023-07-23T08:04:40.766Z,19.96
2023-07-23T08:07:42.768Z,19.70
2023-07-23T08:10:45.946Z,19.95
2023-07-23T08:13:52.735Z,19.84
2023-07-23T08:16:58.833Z,19.76
2023-07-23T08:20:00.865Z,19.96
2023-07-23T08:23:03.499Z,20.16
2023-07-23T08:26:06.584Z,20.02
2023-07-23T08:29:10.208Z,20.18
2023-07-23T08:32:14.928Z,20.28
2023-07-23T08:35:17.207Z,20.02
2023-07-23T08:38:19.443Z,19.92
2023-07-23T08:41:28.615Z,20.24
2023-07-23T08:45:02.237Z,19.77
2023-07-23T08:48:14.953Z,19.83
2023-07-23T08:51:16.565Z,19.84
2023-07-23T08:54:18.626Z,20.29
2023-07-23T08:57:22.404Z,20.00
2023-07-23T09:00:25.989Z,20.01
2023-07-23T09:03:29.226Z,20.40
2023-07-23T09:06:31.832Z,20.22
2023-07-23T09:09:33.607Z,20.66
2023-07-23T09:12:41.410Z,20.93
2023-07-23T09:16:01.350Z,20.76
2023-07-23T09:19:03.235Z,20.93
2023-07-23T09:22:06.312Z,20.57
2023-07-23T09:25:08.867Z,20.67
2023-07-23T09:28:11.449Z,21.04
2023-07-23T09:31:23.030Z,20.79
2023-07-23T09:34:26.130Z,20.41
2023-07-23T09:37:27.922Z,20.58
2023-07-23T09:40:33.974Z,20.49
2023-07-23T09:43:35.890Z,20.70
2023-07-23T09:46:40.074Z,20.94
2023-07-23T09:49:43.279Z,20.42
2023-07-23T09:52:44.853Z,20.47
2023-07-23T09:55:46.909Z,20.28
2023-07-23T09:58:49.646Z,20.28
2023-07-23T10:01:52.651Z,20.32
2023-07-23T10:04:55.798Z,20.38
2023-07-23T10:07:58.481Z,20.20
2023-07-23T10:11:00.096Z,20.00
2023-07-23T10:14:01.833Z,19.72
2023-07-23T10:17:07.419Z,19.99
2023-07-23T10:20:12.273Z,20.24
2023-07-23T10:23:15.784Z,20.32
2023-07-23T10:26:22.843Z,19.99
2023-07-23T10:29:24.450Z,19.78
2023-07-23T10:32:27.497Z,19.49
2023-07-23T10:36:04.648Z,19.52
2023-07-23T10:39:17.844Z,19.50
2023-07-23T10:42:40.956Z,19.08
2023-07-23T10:45:45.935Z,19.13
2023-07-23T10:48:50.201Z,19.03
2023-07-23T10:51:51.919Z,18.85
2023-07-23T10:54:54.896Z,18.65
2023-07-23T10:57:57.177Z,18.48
2023-07-23T11:00:59.961Z,18.63
2023-07-23T11:04:08.223Z,18.90
2023-07-23T11:07:10.042Z,19.20
2023-07-23T11:10:22.216Z,19.47
2023-07-23T11:13:25.830Z,19.51
2023-07-23T11:16:27.690Z,19.81
2023-07-23T11:19:31.943Z,19.79
2023-07-23T11:22:33.533Z,19.31
2023-07-23T11:25:35.198Z,19.53
2023-07-23T11:28:37.012Z,19.65
2023-07-23T11:31:39.368Z,19.83
2023-07-23T11:34:42.356Z,20.15
2023-07-23T11:37:47.647Z,19.92
2023-07-23T11:40:51.351Z,20.05
2023-07-23T11:43:52.954Z,19.99
2023-07-23T11:47:01.734Z,19.85
2023-07-23T11:50:09.915Z,19.78
2023-07-23T11:53:31.618Z,19.56
2023-07-23T11:56:43.622Z,19.54
2023-07-23T11:59:45.942Z,19.88
2023-07-23T12:02:48.567Z,20.23
2023-07-23T12:06:08.241Z,20.82
2023-07-23T12:09:11.948Z,20.54
2023-07-23T12:12:14.373Z,20.65
2023-07-23T12:15:17.245Z,20.49
2023-07-23T12:18:23.441Z,20.91
2023-07-23T12:21:29.932Z,21.75
2023-07-23T12:24:42.676Z,21.09
2023-07-23T12:27:46.545Z,20.86
2023-07-23T12:30:48.216Z,20.55
2023-07-23T12:33:49.843Z,20.55
2023-07-23T12:36:52.795Z,21.24
2023-07-23T12:39:55.577Z,21.14
2023-07-23T12:42:57.190Z,20.88
2023-07-23T12:46:01.159Z,21.08
2023-07-23T12:49:03.394Z,20.86
2023-07-23T12:52:11.167Z,20.42
2023-07-23T12:55:13.239Z,20.43
2023-07-23T12:58:15.210Z,20.79
2023-07-23T13:01:16.849Z,21.07
2023-07-23T13:04:18.845Z,20.73
2023-07-23T13:07:22.872Z,20.33
2023-07-23T13:10:24.814Z,20.06
2023-07-23T13:13:26.710Z,20.27
2023-07-23T13:16:28.528Z,20.09
2023-07-23T13:19:32.131Z,20.06
2023-07-23T13:22:35.245Z,19.99
2023-07-23T13:25:37.006Z,19.93
2023-07-23T13:28:38.725Z,19.63
2023-07-23T13:31:42.728Z,19.58
2023-07-23T13:34:44.691Z,19.52
2023-07-23T13:37:47.927Z,19.50
2023-07-23T13:40:49.706Z,19.09
2023-07-23T13:43:51.856Z,19.16
2023-07-23T13:46:53.462Z,19.22
2023-07-23T13:49:57.600Z,19.31
2023-07-23T13:53:01.192Z,19.35
2023-07-23T13:56:02.963Z,19.02
2023-07-23T13:59:06.915Z,18.99
2023-07-23T14:02:08.789Z,19.19
2023-07-23T14:05:13.363Z,19.17
2023-07-23T14:08:18.509Z,19.47
2023-07-23T14:11:20.244Z,19.48
2023-07-23T14:14:21.787Z,19.46
2023-07-23T14:17:23.556Z,18.82
2023-07-23T14:20:25.174Z,18.74
2023-07-23T14:23:28.136Z,18.72
2023-07-23T14:26:31.752Z,18.72
2023-07-23T14:29:33.470Z,18.48
2023-07-23T14:32:35.497Z,18.51
2023-07-23T14:35:37.090Z,18.36
2023-07-23T14:38:41.147Z,18.43
2023-07-23T14:41:42.718Z,18.37
2023-07-23T14:44:44.278Z,18.35
2023-07-23T14:47:45.913Z,18.34
2023-07-23T14:50:47.651Z,17.76
2023-07-23T14:53:50.803Z,18.19
2023-07-23T14:56:53.668Z,18.23
2023-07-23T14:59:56.396Z,18.97
2023-07-23T15:02:58.073Z,18.90
2023-07-23T15:05:59.727Z,18.63
2023-07-23T15:09:03.268Z,19.21
2023-07-23T15:12:05.798Z,18.98
2023-07-23T15:15:10.357Z,19.09
2023-07-23T15:18:12.828Z,19.08
2023-07-23T15:21:18.755Z,19.09
2023-07-23T15:24:23.410Z,19.12
2023-07-23T15:27:26.738Z,18.65
2023-07-23T15:30:28.392Z,18.63
2023-07-23T15:33:30.626Z,18.45
2023-07-23T15:36:32.329Z,18.31
2023-07-23T15:39:35.761Z,18.31
2023-07-23T15:42:37.523Z,18.26
2023-07-23T15:45:39.151Z,18.34
2023-07-23T15:48:41.029Z,18.08
2023-07-23T15:51:42.663Z,18.47
2023-07-23T15:54:45.576Z,18.80
2023-07-23T15:57:47.114Z,19.16
2023-07-23T16:00:48.741Z,18.96
2023-07-23T16:03:50.328Z,19.06
2023-07-23T16:06:54.773Z,18.87
2023-07-23T16:09:57.862Z,19.04
2023-07-23T16:12:59.478Z,18.60
2023-07-23T16:16:01.193Z,18.57
2023-07-23T16:19:03.367Z,18.68
2023-07-23T16:22:05.639Z,18.66
2023-07-23T16:25:09.119Z,18.86
2023-07-23T16:28:10.897Z,18.56
2023-07-23T16:31:15.091Z,18.57
2023-07-23T16:34:17.220Z,18.60
2023-07-23T16:37:26.104Z,18.53
2023-07-23T16:40:29.508Z,18.48
2023-07-23T16:43:35.698Z,18.58
2023-07-23T16:46:37.365Z,18.79
2023-07-23T16:49:38.913Z,18.75
2023-07-23T16:52:42.566Z,18.73
2023-07-23T16:55:45.447Z,18.80
2023-07-23T16:58:48.971Z,18.55
2023-07-23T17:01:50.629Z,18.65
2023-07-23T17:04:52.303Z,19.13
2023-07-23T17:07:53.878Z,19.39
2023-07-23T17:11:13.130Z,19.67
2023-07-23T17:14:14.971Z,19.97
2023-07-23T17:17:16.862Z,19.94
2023-07-23T17:20:18.636Z,19.84
2023-07-23T17:23:20.266Z,19.25
2023-07-23T17:26:23.297Z,19.28
2023-07-23T17:29:25.548Z,19.11
2023-07-23T17:32:29.199Z,19.11
2023-07-23T17:35:30.804Z,19.11
2023-07-23T17:38:32.546Z,18.99
2023-07-23T17:41:35.579Z,19.09
2023-07-23T17:44:37.350Z,19.55
2023-07-23T17:47:39.056Z,19.70
2023-07-23T17:50:44.389Z,19.76
2023-07-23T17:53:52.942Z,19.83
2023-07-23T17:56:55.870Z,19.62
2023-07-23T17:59:57.428Z,19.32
2023-07-23T18:02:59.515Z,19.57
2023-07-23T18:06:01.200Z,19.55
2023-07-23T18:09:03.091Z,19.41
2023-07-23T18:12:06.836Z,19.14
2023-07-23T18:15:09.320Z,19.17
2023-07-23T18:18:10.921Z,19.14
2023-07-23T18:21:12.497Z,18.99
2023-07-23T18:24:14.357Z,18.93
2023-07-23T18:27:19.798Z,18.80
2023-07-23T18:30:21.511Z,18.77
2023-07-23T18:33:23.046Z,18.64
2023-07-23T18:36:24.962Z,18.56
2023-07-23T18:39:26.546Z,18.53
2023-07-23T18:42:29.449Z,18.55
2023-07-23T18:45:33.390Z,18.39
2023-07-23T18:48:34.988Z,18.33
2023-07-23T18:51:36.635Z,18.33
2023-07-23T18:54:38.389Z,18.31
2023-07-23T18:57:41.335Z,18.38
2023-07-23T19:00:42.887Z,18.44
2023-07-23T19:03:44.589Z,18.41
2023-07-23T19:06:46.141Z,18.44
2023-07-23T19:09:47.960Z,18.49
2023-07-23T19:12:50.918Z,18.52
2023-07-23T19:15:52.633Z,18.58
2023-07-23T19:18:54.357Z,18.58
2023-07-23T19:21:56.161Z,18.54
2023-07-23T19:24:57.822Z,18.55
2023-07-23T19:28:00.852Z,18.68
2023-07-23T19:31:44.425Z,18.66
2023-07-23T19:34:46.532Z,18.52
2023-07-23T19:37:48.220Z,18.62
2023-07-23T19:40:49.999Z,18.57
2023-07-23T19:43:53.383Z,18.66
2023-07-23T19:46:55.137Z,18.64
2023-07-23T19:49:57.013Z,18.69
2023-07-23T19:52:58.614Z,18.65
2023-07-23T19:56:00.561Z,18.69
2023-07-23T19:59:03.521Z,18.64
2023-07-23T20:02:05.319Z,18.57
2023-07-23T20:05:07.542Z,18.59
2023-07-23T20:08:09.196Z,18.54
2023-07-23T20:11:11.484Z,18.53
2023-07-23T20:14:16.327Z,18.45
2023-07-23T20:17:17.980Z,18.47
2023-07-23T20:20:20.174Z,18.47
2023-07-23T20:23:22.309Z,18.44
2023-07-23T20:26:23.873Z,18.38
2023-07-23T20:29:27.393Z,18.29
2023-07-23T20:32:31.484Z,18.22
2023-07-23T20:35:33.969Z,18.16
2023-07-23T20:38:36.081Z,18.30
2023-07-23T20:41:37.962Z,18.37
2023-07-23T20:44:47.078Z,17.65
2023-07-23T20:47:48.713Z,16.66
2023-07-23T20:50:50.263Z,16.68
2023-07-23T20:53:51.834Z,16.49
2023-07-23T20:56:53.381Z,16.56
2023-07-23T20:59:59.777Z,16.25
2023-07-23T21:03:01.361Z,16.40
2023-07-23T21:06:03.019Z,16.16
2023-07-23T21:09:04.826Z,16.15
2023-07-23T21:12:07.747Z,16.10
2023-07-23T21:15:11.289Z,16.09
2023-07-23T21:18:12.811Z,16.01
2023-07-23T21:21:14.372Z,16.09
2023-07-23T21:24:16.016Z,16.15
2023-07-23T21:27:17.580Z,16.18
2023-07-23T21:30:20.724Z,16.20
2023-07-23T21:33:22.398Z,16.19
2023-07-23T21:36:24.118Z,16.14
2023-07-23T21:39:28.112Z,16.12
2023-07-23T21:42:29.801Z,16.06
2023-07-23T21:45:32.662Z,16.00
2023-07-23T21:48:34.194Z,16.08
2023-07-23T21:51:37.702Z,16.15
2023-07-23T21:54:39.427Z,16.06
2023-07-23T21:57:42.878Z,16.16
2023-07-23T22:00:45.977Z,16.31
2023-07-23T22:03:47.637Z,16.27
2023-07-23T22:06:49.252Z,16.38
2023-07-23T22:09:50.999Z,16.39
2023-07-23T22:12:55.768Z,16.45
2023-07-23T22:15:58.676Z,16.55
2023-07-23T22:19:00.256Z,16.64
2023-07-23T22:22:01.834Z,16.65
2023-07-23T22:25:03.578Z,16.67
2023-07-23T22:28:11.368Z,16.66
2023-07-23T22:31:14.605Z,16.87
2023-07-23T22:34:16.960Z,16.84
2023-07-23T22:37:18.505Z,16.99
2023-07-23T22:40:20.512Z,16.91
2023-07-23T22:43:22.207Z,16.93
2023-07-23T22:46:25.941Z,17.01
2023-07-23T22:49:27.889Z,17.05
2023-07-23T22:52:29.505Z,16.92
2023-07-23T22:55:33.972Z,16.97
2023-07-23T22:58:35.559Z,17.02
2023-07-23T23:01:38.674Z,16.94
2023-07-23T23:04:40.435Z,16.88
2023-07-23T23:07:42.025Z,16.97
2023-07-23T23:10:43.733Z,16.99
2023-07-23T23:13:45.261Z,17.04
2023-07-23T23:16:48.152Z,17.15
2023-07-23T23:19:49.682Z,16.93
2023-07-23T23:22:51.309Z,16.87
2023-07-23T23:25:52.837Z,16.96
2023-07-23T23:28:57.375Z,16.93
2023-07-23T23:32:00.235Z,16.91
2023-07-23T23:35:01.855Z,16.94
2023-07-23T23:38:03.424Z,16.90
2023-07-23T23:41:04.959Z,16.77
2023-07-23T23:44:09.373Z,17.06
2023-07-23T23:47:12.335Z,17.04
2023-07-23T23:50:14.038Z,16.87
2023-07-23T23:53:15.620Z,16.97
2023-07-23T23:56:17.159Z,16.87
2023-07-23T23:59:22.244Z,16.81
